createdAt,value
2019-05-20T00:00:47.843Z,29.90
2019-05-20T00:01:47.870Z,29.40
2019-05-20T00:02:47.857Z,29.50
2019-05-20T00:03:47.808Z,30.10
2019-05-20T00:04:47.803Z,30.10
2019-05-20T00:05:47.792Z,31.20
2019-05-20T00:06:47.815Z,30.30
2019-05-20T00:07:47.762Z,31.40
2019-05-20T00:08:47.761Z,30.50
2019-05-20T00:09:47.869Z,32.10
2019-05-20T00:10:47.774Z,31.50
2019-05-20T00:11:47.752Z,32.40
2019-05-20T00:12:47.720Z,33.70
2019-05-20T00:13:47.701Z,33.50
2019-05-20T00:14:47.686Z,33.40
2019-05-20T00:15:47.714Z,33.10
2019-05-20T00:16:47.697Z,33.50
2019-05-20T00:17:47.655Z,34.30
2019-05-20T00:18:47.643Z,35.10
2019-05-20T00:19:50.655Z,34.90
2019-05-20T00:20:47.628Z,36.80
2019-05-20T00:21:47.647Z,36.50
2019-05-20T00:22:47.605Z,36.40
2019-05-20T00:23:47.599Z,36.10
2019-05-20T00:24:47.585Z,35.40
2019-05-20T00:25:47.580Z,35.10
2019-05-20T00:26:47.590Z,36.90
2019-05-20T00:27:47.558Z,36.00
2019-05-20T00:28:47.537Z,36.60
2019-05-20T00:29:47.525Z,36.80
2019-05-20T00:30:47.514Z,36.30
2019-05-20T00:31:47.537Z,37.70
2019-05-20T00:32:47.494Z,37.80
2019-05-20T00:33:47.488Z,39.60
2019-05-20T00:34:47.476Z,40.50
2019-05-20T00:35:47.466Z,40.00
2019-05-20T00:36:47.482Z,40.30
2019-05-20T00:37:47.436Z,41.60
2019-05-20T00:38:47.428Z,42.10
2019-05-20T00:39:47.428Z,41.60
2019-05-20T00:40:47.411Z,42.90
2019-05-20T00:41:47.436Z,41.80
2019-05-20T00:42:47.389Z,42.60
2019-05-20T00:43:47.378Z,45.70
2019-05-20T00:44:47.373Z,45.30
2019-05-20T00:45:47.367Z,46.00
2019-05-20T00:46:47.387Z,46.10
2019-05-20T00:47:47.345Z,51.50
2019-05-20T00:48:47.327Z,52.20
2019-05-20T00:49:47.338Z,48.90
2019-05-20T00:50:47.314Z,51.10
2019-05-20T00:51:47.328Z,53.70
2019-05-20T00:52:47.285Z,60.80
2019-05-20T00:53:47.278Z,71.80
2019-05-20T00:54:47.270Z,73.60
2019-05-20T00:55:47.262Z,79.90
2019-05-20T00:56:47.281Z,81.90
2019-05-20T00:57:47.233Z,81.20
2019-05-20T00:58:47.246Z,74.20
2019-05-20T00:59:47.223Z,73.90
2019-05-20T01:00:47.240Z,77.10
2019-05-20T01:01:47.207Z,73.90
2019-05-20T01:02:56.618Z,73.20
2019-05-20T01:03:48.175Z,71.80
2019-05-20T01:04:47.166Z,71.00
2019-05-20T01:05:47.150Z,73.20
2019-05-20T01:06:47.138Z,71.70
2019-05-20T01:07:47.157Z,78.00
2019-05-20T01:08:47.122Z,77.40
2019-05-20T01:09:47.113Z,79.10
2019-05-20T01:10:47.097Z,82.50
2019-05-20T01:11:47.087Z,83.90
2019-05-20T01:12:47.122Z,86.40
2019-05-20T01:13:47.088Z,87.30
2019-05-20T01:14:47.054Z,87.10
2019-05-20T01:15:47.046Z,89.30
2019-05-20T01:16:47.037Z,91.60
2019-05-20T01:17:47.060Z,85.90
2019-05-20T01:18:47.014Z,90.40
2019-05-20T01:19:47.020Z,86.40
2019-05-20T01:20:47.008Z,84.20
2019-05-20T01:21:46.990Z,87.90
2019-05-20T01:22:47.001Z,83.50
2019-05-20T01:23:46.961Z,86.80
2019-05-20T01:24:46.959Z,87.80
2019-05-20T01:25:46.964Z,77.90
2019-05-20T01:26:46.937Z,81.60
2019-05-20T01:27:46.998Z,92.30
2019-05-20T01:28:46.920Z,101.10
2019-05-20T01:29:46.943Z,105.20
2019-05-20T01:30:46.895Z,112.20
2019-05-20T01:31:46.886Z,104.70
2019-05-20T01:32:46.905Z,105.60
2019-05-20T01:33:46.865Z,103.70
2019-05-20T01:34:46.858Z,99.70
2019-05-20T01:35:46.840Z,93.40
2019-05-20T01:36:46.831Z,88.00
2019-05-20T01:37:46.842Z,99.50
2019-05-20T01:38:46.813Z,89.50
2019-05-20T01:39:46.802Z,105.40
2019-05-20T01:40:46.789Z,97.40
2019-05-20T01:41:46.788Z,99.50
2019-05-20T01:42:46.798Z,94.60
2019-05-20T01:43:46.765Z,96.90
2019-05-20T01:44:46.748Z,111.70
2019-05-20T01:45:46.744Z,116.40
2019-05-20T01:46:46.735Z,121.40
2019-05-20T01:47:46.747Z,124.50
2019-05-20T01:48:46.711Z,129.60
2019-05-20T01:49:46.706Z,136.10
2019-05-20T01:50:46.685Z,127.60
2019-05-20T01:51:46.674Z,132.50
2019-05-20T01:52:46.698Z,119.00
2019-05-20T01:53:46.656Z,127.60
2019-05-20T01:54:46.643Z,125.00
2019-05-20T01:55:46.645Z,118.00
2019-05-20T01:56:46.622Z,121.10
2019-05-20T01:57:46.660Z,125.40
2019-05-20T01:58:46.609Z,119.50
2019-05-20T01:59:46.601Z,122.10
2019-05-20T02:00:46.584Z,129.80
2019-05-20T02:01:46.573Z,127.00
2019-05-20T02:02:46.599Z,132.20
2019-05-20T02:03:46.551Z,136.90
2019-05-20T02:04:46.541Z,138.00
2019-05-20T02:05:46.531Z,145.50
2019-05-20T02:06:46.519Z,149.10
2019-05-20T02:07:46.538Z,135.40
2019-05-20T02:08:46.518Z,151.70
2019-05-20T02:09:46.497Z,147.40
2019-05-20T02:10:46.478Z,162.90
2019-05-20T02:11:46.465Z,155.10
2019-05-20T02:12:46.480Z,159.50
2019-05-20T02:13:46.442Z,167.30
2019-05-20T02:14:46.438Z,144.80
2019-05-20T02:15:46.426Z,159.10
2019-05-20T02:16:46.414Z,156.60
2019-05-20T02:17:46.426Z,152.80
2019-05-20T02:18:46.402Z,165.50
2019-05-20T02:19:46.382Z,149.00
2019-05-20T02:20:46.371Z,137.70
2019-05-20T02:21:46.365Z,149.00
2019-05-20T02:22:46.378Z,134.50
2019-05-20T02:23:46.344Z,162.20
2019-05-20T02:24:46.341Z,163.20
2019-05-20T02:25:46.948Z,156.80
2019-05-20T02:26:46.311Z,153.40
2019-05-20T02:27:46.318Z,149.90
2019-05-20T02:28:46.282Z,158.70
2019-05-20T02:29:46.283Z,142.60
2019-05-20T02:30:46.292Z,142.30
2019-05-20T02:31:46.256Z,148.30
2019-05-20T02:32:46.271Z,169.40
2019-05-20T02:33:51.834Z,176.90
2019-05-20T02:34:47.226Z,195.70
2019-05-20T02:35:46.215Z,189.60
2019-05-20T02:36:46.193Z,175.20
2019-05-20T02:37:46.213Z,188.50
2019-05-20T02:38:46.179Z,186.90
2019-05-20T02:39:46.163Z,195.60
2019-05-20T02:40:46.157Z,167.20
2019-05-20T02:41:46.160Z,153.30
2019-05-20T02:42:46.160Z,175.60
2019-05-20T02:43:46.123Z,197.40
2019-05-20T02:44:46.127Z,201.10
2019-05-20T02:45:46.099Z,218.00
2019-05-20T02:46:46.095Z,219.00
2019-05-20T02:47:46.107Z,219.70
2019-05-20T02:48:46.071Z,205.00
2019-05-20T02:49:46.058Z,189.90
2019-05-20T02:50:46.051Z,200.90
2019-05-20T02:51:46.043Z,204.70
2019-05-20T02:52:46.059Z,205.50
2019-05-20T02:53:46.020Z,216.80
2019-05-20T02:54:46.007Z,219.80
2019-05-20T02:55:46.005Z,207.60
2019-05-20T02:56:45.984Z,211.50
2019-05-20T02:57:45.999Z,218.90
2019-05-20T02:58:56.862Z,216.60
2019-05-20T02:59:45.952Z,210.40
2019-05-20T03:00:45.945Z,220.00
2019-05-20T03:01:45.930Z,209.70
2019-05-20T03:02:45.947Z,216.30
2019-05-20T03:03:45.913Z,235.40
2019-05-20T03:04:45.897Z,206.80
2019-05-20T03:05:45.885Z,204.50
2019-05-20T03:06:45.885Z,213.40
2019-05-20T03:07:45.867Z,206.90
2019-05-20T03:08:45.883Z,218.10
2019-05-20T03:09:45.844Z,211.90
2019-05-20T03:10:45.837Z,206.30
2019-05-20T03:11:45.825Z,224.90
2019-05-20T03:12:45.814Z,222.80
2019-05-20T03:13:45.831Z,215.20
2019-05-20T03:14:45.797Z,205.60
2019-05-20T03:15:45.811Z,224.40
2019-05-20T03:16:45.768Z,244.90
2019-05-20T03:17:45.759Z,209.00
2019-05-20T03:18:45.773Z,236.40
2019-05-20T03:19:45.751Z,221.60
2019-05-20T03:20:45.722Z,243.30
2019-05-20T03:21:45.723Z,198.10
2019-05-20T03:22:45.710Z,201.80
2019-05-20T03:23:45.718Z,224.80
2019-05-20T03:24:45.680Z,202.90
2019-05-20T03:25:45.670Z,217.70
2019-05-20T03:26:45.665Z,200.30
2019-05-20T03:27:45.657Z,203.60
2019-05-20T03:28:45.666Z,237.00
2019-05-20T03:29:45.625Z,241.80
2019-05-20T03:30:45.643Z,244.10
2019-05-20T03:31:45.611Z,257.40
2019-05-20T03:32:45.603Z,272.40
2019-05-20T03:33:45.616Z,269.80
2019-05-20T03:34:54.142Z,261.70
2019-05-20T03:35:46.596Z,247.30
2019-05-20T03:36:45.551Z,281.40
2019-05-20T03:37:45.545Z,269.90
2019-05-20T03:38:45.558Z,256.40
2019-05-20T03:39:45.528Z,262.80
2019-05-20T03:40:45.511Z,259.10
2019-05-20T03:41:45.503Z,256.50
2019-05-20T03:42:45.493Z,276.60
2019-05-20T03:43:45.508Z,305.40
2019-05-20T03:44:45.476Z,288.80
2019-05-20T03:45:45.455Z,294.70
2019-05-20T03:46:45.447Z,345.00
2019-05-20T03:47:45.437Z,304.70
2019-05-20T03:48:45.455Z,297.40
2019-05-20T03:49:45.411Z,299.20
2019-05-20T03:50:45.406Z,292.50
2019-05-20T03:51:45.393Z,333.00
2019-05-20T03:52:45.380Z,270.20
2019-05-20T03:53:45.399Z,216.40
2019-05-20T03:54:45.361Z,207.50
2019-05-20T03:55:45.365Z,221.90
2019-05-20T03:56:45.346Z,251.10
2019-05-20T03:57:45.326Z,238.00
2019-05-20T03:58:45.343Z,263.80
2019-05-20T03:59:45.303Z,298.90
2019-05-20T04:00:45.311Z,298.60
2019-05-20T04:01:45.290Z,296.40
2019-05-20T04:02:45.276Z,298.00
2019-05-20T04:03:45.288Z,288.30
2019-05-20T04:05:00.882Z,272.50
2019-05-20T04:05:46.244Z,278.00
2019-05-20T04:06:45.230Z,271.50
2019-05-20T04:07:45.219Z,272.50
2019-05-20T04:08:45.235Z,288.60
2019-05-20T04:09:45.203Z,267.00
2019-05-20T04:10:45.193Z,225.00
2019-05-20T04:11:45.175Z,255.70
2019-05-20T04:12:45.167Z,238.00
2019-05-20T04:13:45.182Z,246.10
2019-05-20T04:14:45.146Z,249.30
2019-05-20T04:15:45.141Z,263.60
2019-05-20T04:16:45.124Z,263.90
2019-05-20T04:17:45.114Z,221.00
2019-05-20T04:18:45.135Z,241.40
2019-05-20T04:19:45.099Z,259.30
2019-05-20T04:20:45.085Z,277.10
2019-05-20T04:21:45.066Z,261.10
2019-05-20T04:22:45.054Z,235.50
2019-05-20T04:23:45.103Z,259.20
2019-05-20T04:24:45.035Z,206.70
2019-05-20T04:25:45.034Z,217.30
2019-05-20T04:26:45.025Z,232.50
2019-05-20T04:27:45.004Z,177.30
2019-05-20T04:28:45.014Z,229.00
2019-05-20T04:29:44.988Z,238.50
2019-05-20T04:30:44.976Z,224.70
2019-05-20T04:31:44.960Z,209.50
2019-05-20T04:32:44.972Z,198.30
2019-05-20T04:33:44.976Z,205.40
2019-05-20T04:34:44.935Z,205.90
2019-05-20T04:35:49.269Z,193.40
2019-05-20T04:36:44.916Z,188.30
2019-05-20T04:37:44.901Z,197.30
2019-05-20T04:38:44.918Z,177.60
2019-05-20T04:39:44.880Z,189.90
2019-05-20T04:40:44.867Z,159.40
2019-05-20T04:41:44.881Z,179.10
2019-05-20T04:42:44.873Z,182.90
2019-05-20T04:43:44.902Z,151.80
2019-05-20T04:44:44.827Z,187.60
2019-05-20T04:45:44.821Z,166.90
2019-05-20T04:46:44.810Z,155.80
2019-05-20T04:47:44.799Z,162.30
2019-05-20T04:48:44.812Z,149.80
2019-05-20T04:49:44.780Z,159.60
2019-05-20T04:50:44.762Z,143.10
2019-05-20T04:51:44.755Z,153.70
2019-05-20T04:52:44.799Z,149.90
2019-05-20T04:53:44.759Z,160.20
2019-05-20T04:54:44.725Z,147.70
2019-05-20T04:55:44.707Z,151.20
2019-05-20T04:56:44.695Z,150.00
2019-05-20T04:57:44.706Z,148.70
2019-05-20T04:58:44.712Z,149.50
2019-05-20T04:59:44.665Z,142.50
2019-05-20T05:00:44.652Z,140.10
2019-05-20T05:01:44.644Z,134.60
2019-05-20T05:02:44.633Z,135.70
2019-05-20T05:03:44.659Z,128.80
2019-05-20T05:04:44.610Z,122.60
2019-05-20T05:05:44.607Z,121.90
2019-05-20T05:06:44.591Z,130.40
2019-05-20T05:07:44.577Z,121.20
2019-05-20T05:08:44.589Z,128.10
2019-05-20T05:09:44.560Z,117.00
2019-05-20T05:10:44.542Z,112.00
2019-05-20T05:11:44.534Z,113.00
2019-05-20T05:12:44.517Z,97.80
2019-05-20T05:13:44.535Z,100.80
2019-05-20T05:14:44.507Z,101.60
2019-05-20T05:15:44.486Z,98.10
2019-05-20T05:16:44.474Z,98.40
2019-05-20T05:17:44.483Z,92.50
2019-05-20T05:18:44.479Z,92.70
2019-05-20T05:19:44.460Z,98.40
2019-05-20T05:20:44.438Z,94.70
2019-05-20T05:21:44.427Z,103.00
2019-05-20T05:22:44.411Z,99.10
2019-05-20T05:23:58.337Z,100.40
2019-05-20T05:24:45.395Z,102.30
2019-05-20T05:25:44.381Z,96.50
2019-05-20T05:26:47.571Z,99.70
2019-05-20T05:27:44.362Z,92.00
2019-05-20T05:28:44.375Z,94.00
2019-05-20T05:29:44.335Z,94.30
2019-05-20T05:30:44.323Z,93.10
2019-05-20T05:31:44.310Z,95.40
2019-05-20T05:32:45.059Z,88.20
2019-05-20T05:33:44.336Z,86.40
2019-05-20T05:34:44.283Z,90.30
2019-05-20T05:35:52.710Z,89.70
2019-05-20T05:36:45.261Z,87.10
2019-05-20T05:37:44.251Z,85.60
2019-05-20T05:38:44.240Z,101.40
2019-05-20T05:39:44.254Z,95.60
2019-05-20T05:40:44.216Z,98.90
2019-05-20T05:41:44.207Z,96.90
2019-05-20T05:42:44.198Z,93.50
2019-05-20T05:43:44.201Z,88.60
2019-05-20T05:44:44.206Z,99.60
2019-05-20T05:45:44.163Z,93.70
2019-05-20T05:46:44.150Z,94.90
2019-05-20T05:47:44.147Z,99.00
2019-05-20T05:48:44.133Z,94.60
2019-05-20T05:49:44.147Z,98.50
2019-05-20T05:50:44.117Z,97.80
2019-05-20T05:51:44.102Z,92.50
2019-05-20T05:52:44.088Z,89.50
2019-05-20T05:53:44.098Z,92.40
2019-05-20T05:54:44.099Z,93.80
2019-05-20T05:55:44.060Z,91.80
2019-05-20T05:56:44.054Z,85.90
2019-05-20T05:57:44.036Z,93.00
2019-05-20T05:58:44.028Z,92.40
2019-05-20T05:59:44.036Z,97.00
2019-05-20T06:00:43.999Z,98.10
2019-05-20T06:01:44.001Z,98.40
2019-05-20T06:02:43.996Z,102.30
2019-05-20T06:03:43.970Z,97.30
2019-05-20T06:04:43.986Z,97.10
2019-05-20T06:05:43.960Z,96.00
2019-05-20T06:06:43.940Z,96.60
2019-05-20T06:07:43.927Z,104.20
2019-05-20T06:08:43.915Z,105.40
2019-05-20T06:09:43.931Z,102.00
2019-05-20T06:10:43.891Z,107.40
2019-05-20T06:11:43.885Z,99.80
2019-05-20T06:12:43.880Z,102.50
2019-05-20T06:13:43.865Z,109.80
2019-05-20T06:14:43.892Z,110.10
2019-05-20T06:15:43.852Z,110.90
2019-05-20T06:16:43.829Z,122.30
2019-05-20T06:17:43.825Z,120.00
2019-05-20T06:18:43.810Z,113.10
2019-05-20T06:19:43.830Z,113.30
2019-05-20T06:20:43.787Z,105.90
2019-05-20T06:21:43.778Z,113.20
2019-05-20T06:22:43.771Z,109.20
2019-05-20T06:23:43.773Z,101.50
2019-05-20T06:24:43.771Z,122.50
2019-05-20T06:25:43.737Z,131.00
2019-05-20T06:26:43.731Z,115.30
2019-05-20T06:27:43.720Z,138.80
2019-05-20T06:28:43.704Z,145.80
2019-05-20T06:29:43.725Z,145.80
2019-05-20T06:30:43.683Z,134.70
2019-05-20T06:31:43.677Z,125.30
2019-05-20T06:32:43.669Z,145.50
2019-05-20T06:33:43.656Z,154.30
2019-05-20T06:34:43.665Z,149.40
2019-05-20T06:35:43.630Z,135.60
2019-05-20T06:36:43.618Z,130.60
2019-05-20T06:37:43.610Z,145.60
2019-05-20T06:38:43.606Z,151.60
2019-05-20T06:39:43.614Z,136.70
2019-05-20T06:40:43.575Z,146.20
2019-05-20T06:41:43.567Z,156.40
2019-05-20T06:42:43.554Z,146.40
2019-05-20T06:43:43.548Z,145.40
2019-05-20T06:44:52.164Z,127.70
2019-05-20T06:45:44.528Z,112.80
2019-05-20T06:46:43.514Z,111.10
2019-05-20T06:47:43.510Z,252.60
2019-05-20T06:48:43.492Z,183.60
2019-05-20T06:49:43.506Z,231.60
2019-05-20T06:50:43.472Z,224.10
2019-05-20T06:51:43.468Z,299.80
2019-05-20T06:52:43.446Z,226.30
2019-05-20T06:53:43.443Z,309.80
2019-05-20T06:54:43.454Z,240.20
2019-05-20T06:55:43.419Z,236.40
2019-05-20T06:56:43.480Z,295.30
2019-05-20T06:57:43.401Z,222.00
2019-05-20T06:58:43.392Z,250.20
2019-05-20T06:59:43.404Z,291.80
2019-05-20T07:00:43.371Z,276.70
2019-05-20T07:01:43.361Z,226.10
2019-05-20T07:02:43.355Z,259.40
2019-05-20T07:03:43.344Z,270.30
2019-05-20T07:04:43.350Z,449.10
2019-05-20T07:05:43.326Z,284.60
2019-05-20T07:06:47.237Z,393.00
2019-05-20T07:07:43.291Z,278.40
2019-05-20T07:08:43.289Z,331.10
2019-05-20T07:09:43.313Z,277.50
2019-05-20T07:10:43.263Z,254.20
2019-05-20T07:11:52.360Z,345.20
2019-05-20T07:12:44.251Z,268.80
2019-05-20T07:13:43.228Z,254.80
2019-05-20T07:14:43.242Z,283.20
2019-05-20T07:15:43.210Z,214.80
2019-05-20T07:16:43.201Z,230.90
2019-05-20T07:17:43.186Z,294.30
2019-05-20T07:18:43.178Z,211.70
2019-05-20T07:19:43.187Z,222.80
2019-05-20T07:20:43.162Z,186.20
2019-05-20T07:21:43.150Z,170.30
2019-05-20T07:22:55.180Z,161.50
2019-05-20T07:23:44.124Z,151.50
2019-05-20T07:24:43.159Z,147.50
2019-05-20T07:25:43.122Z,146.60
2019-05-20T07:26:43.096Z,217.50
2019-05-20T07:27:43.089Z,182.50
2019-05-20T07:28:43.074Z,154.00
2019-05-20T07:29:43.092Z,158.00
2019-05-20T07:30:43.050Z,156.80
2019-05-20T07:31:43.044Z,138.50
2019-05-20T07:32:43.045Z,144.70
2019-05-20T07:33:43.027Z,166.50
2019-05-20T07:34:43.033Z,169.80
2019-05-20T07:35:42.995Z,167.20
2019-05-20T07:36:43.014Z,226.00
2019-05-20T07:37:42.987Z,188.60
2019-05-20T07:38:42.965Z,150.10
2019-05-20T07:39:42.983Z,176.50
2019-05-20T07:40:42.942Z,183.90
2019-05-20T07:41:42.934Z,186.70
2019-05-20T07:42:42.922Z,210.50
2019-05-20T07:43:42.927Z,175.50
2019-05-20T07:44:42.936Z,210.30
2019-05-20T07:45:42.894Z,200.90
2019-05-20T07:46:42.883Z,200.40
2019-05-20T07:47:42.873Z,158.50
2019-05-20T07:48:42.873Z,168.90
2019-05-20T07:49:42.873Z,175.80
2019-05-20T07:50:42.839Z,166.30
2019-05-20T07:51:42.831Z,178.20
2019-05-20T07:52:42.816Z,170.60
2019-05-20T07:53:42.819Z,160.10
2019-05-20T07:54:42.822Z,138.80
2019-05-20T07:55:42.807Z,142.00
2019-05-20T07:56:42.782Z,171.00
2019-05-20T07:57:42.764Z,170.60
2019-05-20T07:58:42.757Z,201.90
2019-05-20T07:59:42.745Z,213.90
2019-05-20T08:00:42.766Z,157.20
2019-05-20T08:01:42.722Z,220.10
2019-05-20T08:02:42.709Z,194.80
2019-05-20T08:03:42.703Z,201.90
2019-05-20T08:04:42.769Z,166.30
2019-05-20T08:05:42.706Z,229.60
2019-05-20T08:06:42.670Z,224.20
2019-05-20T08:07:51.781Z,211.20
2019-05-20T08:08:43.643Z,180.00
2019-05-20T08:09:45.978Z,229.10
2019-05-20T08:10:42.654Z,168.40
2019-05-20T08:11:42.614Z,199.50
2019-05-20T08:12:42.607Z,169.70
2019-05-20T08:13:42.609Z,179.60
2019-05-20T08:14:42.588Z,197.60
2019-05-20T08:15:42.600Z,180.10
2019-05-20T08:16:42.572Z,204.10
2019-05-20T08:17:42.554Z,234.60
2019-05-20T08:18:42.545Z,201.70
2019-05-20T08:19:42.536Z,177.90
2019-05-20T08:20:42.554Z,201.50
2019-05-20T08:21:42.511Z,207.30
2019-05-20T08:22:42.515Z,231.60
2019-05-20T08:23:42.489Z,275.90
2019-05-20T08:24:42.488Z,194.40
2019-05-20T08:25:42.494Z,165.40
2019-05-20T08:26:42.460Z,203.70
2019-05-20T08:27:42.443Z,161.40
2019-05-20T08:28:42.437Z,166.10
2019-05-20T08:29:42.424Z,178.30
2019-05-20T08:30:42.450Z,205.00
2019-05-20T08:31:42.459Z,168.70
2019-05-20T08:32:42.396Z,172.90
2019-05-20T08:33:42.400Z,159.60
2019-05-20T08:34:42.385Z,157.10
2019-05-20T08:35:42.385Z,163.80
2019-05-20T08:36:42.390Z,162.60
2019-05-20T08:37:45.785Z,149.20
2019-05-20T08:38:42.333Z,142.20
2019-05-20T08:39:42.319Z,125.60
2019-05-20T08:40:42.689Z,121.20
2019-05-20T08:41:42.325Z,111.80
2019-05-20T08:42:42.398Z,124.00
2019-05-20T08:43:42.305Z,134.50
2019-05-20T08:44:42.263Z,143.00
2019-05-20T08:45:42.283Z,145.20
2019-05-20T08:46:42.277Z,150.80
2019-05-20T08:47:42.236Z,138.10
2019-05-20T08:48:42.252Z,170.40
2019-05-20T08:49:42.730Z,120.80
2019-05-20T08:50:42.227Z,151.50
2019-05-20T08:51:42.194Z,142.30
2019-05-20T08:52:42.182Z,142.80
2019-05-20T08:53:42.169Z,169.00
2019-05-20T08:54:42.157Z,149.00
2019-05-20T08:55:42.173Z,149.20
2019-05-20T08:56:42.149Z,149.00
2019-05-20T08:57:42.149Z,135.20
2019-05-20T08:58:42.123Z,166.10
2019-05-20T08:59:42.105Z,164.10
2019-05-20T09:00:42.137Z,154.70
2019-05-20T09:01:42.083Z,160.10
2019-05-20T09:02:42.081Z,153.00
2019-05-20T09:03:42.069Z,139.00
2019-05-20T09:04:42.056Z,141.90
2019-05-20T09:05:42.077Z,153.10
2019-05-20T09:06:42.026Z,157.70
2019-05-20T09:07:42.029Z,173.00
2019-05-20T09:08:42.018Z,161.30
2019-05-20T09:09:42.001Z,158.90
2019-05-20T09:10:42.034Z,162.00
2019-05-20T09:11:41.978Z,140.60
2019-05-20T09:12:41.966Z,158.90
2019-05-20T09:13:41.962Z,155.50
2019-05-20T09:14:41.945Z,156.70
2019-05-20T09:15:45.256Z,154.60
2019-05-20T09:16:41.932Z,153.60
2019-05-20T09:17:41.916Z,158.40
2019-05-20T09:18:41.919Z,155.00
2019-05-20T09:19:41.904Z,155.30
2019-05-20T09:20:41.975Z,166.20
2019-05-20T09:21:41.871Z,153.00
2019-05-20T09:22:41.863Z,160.30
2019-05-20T09:23:41.852Z,150.30
2019-05-20T09:24:41.885Z,163.20
2019-05-20T09:25:41.869Z,156.10
2019-05-20T09:26:41.816Z,160.20
2019-05-20T09:27:41.809Z,151.00
2019-05-20T09:28:41.808Z,150.40
2019-05-20T09:29:41.796Z,143.50
2019-05-20T09:30:41.801Z,141.90
2019-05-20T09:31:41.763Z,138.60
2019-05-20T09:32:42.912Z,153.80
2019-05-20T09:33:41.742Z,136.90
2019-05-20T09:34:41.742Z,149.40
2019-05-20T09:35:42.183Z,141.00
2019-05-20T09:36:41.722Z,156.80
2019-05-20T09:37:41.703Z,151.40
2019-05-20T09:38:41.704Z,142.40
2019-05-20T09:39:41.681Z,142.20
2019-05-20T09:40:41.713Z,136.90
2019-05-20T09:41:41.658Z,134.50
2019-05-20T09:42:41.649Z,122.30
2019-05-20T09:43:41.636Z,124.80
2019-05-20T09:44:41.622Z,122.40
2019-05-20T09:45:41.619Z,115.60
2019-05-20T09:46:41.630Z,120.60
2019-05-20T09:47:41.595Z,115.50
2019-05-20T09:48:41.584Z,116.70
2019-05-20T09:49:41.571Z,123.70
2019-05-20T09:50:41.567Z,124.00
2019-05-20T09:51:41.583Z,127.70
2019-05-20T09:52:41.542Z,120.20
2019-05-20T09:53:41.531Z,125.40
2019-05-20T09:54:45.344Z,126.10
2019-05-20T09:55:41.511Z,131.10
2019-05-20T09:56:41.523Z,137.90
2019-05-20T09:57:41.488Z,138.70
2019-05-20T09:58:41.492Z,138.40
2019-05-20T09:59:43.625Z,142.00
2019-05-20T10:00:41.450Z,139.00
2019-05-20T10:01:41.492Z,129.00
2019-05-20T10:02:41.473Z,126.70
2019-05-20T10:03:41.425Z,114.30
2019-05-20T10:04:41.411Z,127.50
2019-05-20T10:05:41.403Z,122.60
2019-05-20T10:06:41.417Z,132.00
2019-05-20T10:07:41.390Z,122.60
2019-05-20T10:08:44.974Z,123.70
2019-05-20T10:09:41.358Z,121.00
2019-05-20T10:10:41.379Z,120.00
2019-05-20T10:11:41.365Z,128.20
2019-05-20T10:12:46.609Z,127.90
2019-05-20T10:13:42.314Z,136.10
2019-05-20T10:14:41.314Z,129.20
2019-05-20T10:15:41.297Z,129.00
2019-05-20T10:16:41.311Z,129.80
2019-05-20T10:17:41.339Z,134.20
2019-05-20T10:18:41.267Z,130.10
2019-05-20T10:19:41.252Z,124.00
2019-05-20T10:20:41.242Z,125.00
2019-05-20T10:21:41.288Z,119.80
2019-05-20T10:22:41.218Z,113.30
2019-05-20T10:23:41.207Z,107.80
2019-05-20T10:24:41.200Z,105.10
2019-05-20T10:25:41.194Z,101.90
2019-05-20T10:26:41.211Z,105.80
2019-05-20T10:27:41.175Z,101.80
2019-05-20T10:28:44.714Z,101.60
2019-05-20T10:29:42.143Z,96.10
2019-05-20T10:30:41.134Z,97.40
2019-05-20T10:31:41.150Z,102.10
2019-05-20T10:32:41.115Z,101.00
2019-05-20T10:33:41.118Z,101.60
2019-05-20T10:34:41.097Z,106.10
2019-05-20T10:35:41.090Z,107.90
2019-05-20T10:36:41.143Z,107.20
2019-05-20T10:37:41.071Z,105.20
2019-05-20T10:38:56.961Z,115.90
2019-05-20T10:39:42.035Z,112.70
2019-05-20T10:40:41.031Z,108.40
2019-05-20T10:41:41.050Z,106.10
2019-05-20T10:42:41.012Z,105.30
2019-05-20T10:43:41.001Z,99.00
2019-05-20T10:44:42.016Z,106.60
2019-05-20T10:45:40.972Z,99.60
2019-05-20T10:46:40.992Z,102.70
2019-05-20T10:47:40.957Z,102.30
2019-05-20T10:48:40.943Z,103.20
2019-05-20T10:49:40.935Z,103.50
2019-05-20T10:50:40.920Z,101.80
2019-05-20T10:51:40.972Z,100.00
2019-05-20T10:52:40.894Z,97.60
2019-05-20T10:53:40.902Z,91.90
2019-05-20T10:54:40.875Z,92.30
2019-05-20T10:55:40.874Z,90.40
2019-05-20T10:56:40.884Z,91.20
2019-05-20T10:57:40.845Z,87.90
2019-05-20T10:58:40.831Z,87.40
2019-05-20T10:59:40.827Z,84.10
2019-05-20T11:01:00.675Z,85.40
2019-05-20T11:01:41.838Z,85.30
2019-05-20T11:02:40.798Z,86.90
2019-05-20T11:03:40.779Z,89.40
2019-05-20T11:04:40.769Z,89.90
2019-05-20T11:05:40.764Z,90.80
2019-05-20T11:06:40.777Z,92.50
2019-05-20T11:07:40.790Z,92.60
2019-05-20T11:08:40.727Z,91.80
2019-05-20T11:09:40.720Z,87.30
2019-05-20T11:10:40.758Z,86.40
2019-05-20T11:11:40.727Z,87.20
2019-05-20T11:12:40.688Z,84.30
2019-05-20T11:13:40.672Z,85.10
2019-05-20T11:14:40.670Z,84.90
2019-05-20T11:15:40.654Z,83.50
2019-05-20T11:16:40.671Z,87.10
2019-05-20T11:17:40.637Z,86.10
2019-05-20T11:18:40.631Z,85.70
2019-05-20T11:19:40.613Z,86.10
2019-05-20T11:20:40.610Z,84.50
2019-05-20T11:21:40.625Z,83.80
2019-05-20T11:22:40.602Z,85.70
2019-05-20T11:23:40.609Z,85.20
2019-05-20T11:24:40.565Z,81.60
2019-05-20T11:25:40.553Z,87.10
2019-05-20T11:26:40.567Z,84.40
2019-05-20T11:27:40.529Z,83.00
2019-05-20T11:28:40.518Z,79.30
2019-05-20T11:29:40.511Z,81.10
2019-05-20T11:30:40.499Z,81.30
2019-05-20T11:31:40.510Z,77.70
2019-05-20T11:32:40.478Z,81.70
2019-05-20T11:33:40.467Z,81.30
2019-05-20T11:34:40.458Z,82.10
2019-05-20T11:35:40.448Z,85.60
2019-05-20T11:36:40.459Z,84.60
2019-05-20T11:37:40.424Z,83.30
2019-05-20T11:38:40.412Z,81.90
2019-05-20T11:39:40.421Z,82.30
2019-05-20T11:40:40.391Z,82.70
2019-05-20T11:41:52.674Z,77.90
2019-05-20T11:42:41.368Z,83.30
2019-05-20T11:43:40.362Z,80.20
2019-05-20T11:44:40.353Z,78.80
2019-05-20T11:45:40.340Z,77.30
2019-05-20T11:46:40.368Z,76.90
2019-05-20T11:47:40.317Z,77.90
2019-05-20T11:48:40.303Z,78.40
2019-05-20T11:49:40.292Z,72.60
2019-05-20T11:50:40.283Z,73.60
2019-05-20T11:51:40.271Z,73.20
2019-05-20T11:52:40.293Z,68.20
2019-05-20T11:53:40.254Z,69.60
2019-05-20T11:54:40.244Z,72.40
2019-05-20T11:55:40.242Z,72.00
2019-05-20T11:56:40.242Z,72.10
2019-05-20T11:57:40.241Z,73.90
2019-05-20T11:58:40.199Z,73.60
2019-05-20T11:59:40.215Z,74.20
2019-05-20T12:00:40.175Z,77.80
2019-05-20T12:01:40.177Z,76.20
2019-05-20T12:02:40.180Z,77.60
2019-05-20T12:03:40.146Z,79.30
2019-05-20T12:04:40.131Z,78.00
2019-05-20T12:05:40.150Z,80.60
2019-05-20T12:06:40.112Z,78.10
2019-05-20T12:07:40.150Z,76.20
2019-05-20T12:08:40.095Z,77.20
2019-05-20T12:09:48.799Z,75.40
2019-05-20T12:10:41.072Z,79.10
2019-05-20T12:11:40.057Z,77.10
2019-05-20T12:12:40.072Z,75.80
2019-05-20T12:13:40.041Z,72.90
2019-05-20T12:14:40.025Z,75.90
2019-05-20T12:15:40.011Z,76.60
2019-05-20T12:16:40.006Z,74.50
2019-05-20T12:17:40.071Z,71.70
2019-05-20T12:18:39.982Z,74.70
2019-05-20T12:19:39.973Z,70.40
2019-05-20T12:20:39.958Z,71.40
2019-05-20T12:21:39.953Z,72.30
2019-05-20T12:22:39.962Z,72.70
2019-05-20T12:23:39.929Z,73.00
2019-05-20T12:24:39.918Z,74.80
2019-05-20T12:25:39.920Z,74.70
2019-05-20T12:26:39.898Z,76.10
2019-05-20T12:27:39.914Z,72.20
2019-05-20T12:28:39.883Z,73.80
2019-05-20T12:29:39.864Z,73.00
2019-05-20T12:30:39.865Z,73.10
2019-05-20T12:31:39.843Z,73.00
2019-05-20T12:32:39.866Z,71.30
2019-05-20T12:33:39.824Z,72.40
2019-05-20T12:34:39.815Z,71.50
2019-05-20T12:35:39.803Z,73.20
2019-05-20T12:36:39.793Z,72.10